createdAt,value
2022-12-27T00:01:13.742Z,3.50
2022-12-27T00:04:00.865Z,3.50
2022-12-27T00:06:47.677Z,3.40
2022-12-27T00:09:34.940Z,3.40
2022-12-27T00:12:23.339Z,3.30
2022-12-27T00:15:10.811Z,3.30
2022-12-27T00:17:59.803Z,3.30
2022-12-27T00:20:46.887Z,3.20
2022-12-27T00:23:36.210Z,3.20
2022-12-27T00:26:24.928Z,3.20
2022-12-27T00:29:13.605Z,3.20
2022-12-27T00:32:01.009Z,3.10
2022-12-27T00:34:48.193Z,3.10
2022-12-27T00:37:35.461Z,3.10
2022-12-27T00:40:22.650Z,3.00
2022-12-27T00:43:10.371Z,3.00
2022-12-27T00:45:59.598Z,3.00
2022-12-27T00:48:47.504Z,3.00
2022-12-27T00:51:34.591Z,2.90
2022-12-27T00:54:21.856Z,2.90
2022-12-27T00:57:09.058Z,2.90
2022-12-27T00:59:56.230Z,2.80
2022-12-27T01:02:44.559Z,2.80
2022-12-27T01:05:31.657Z,2.80
2022-12-27T01:08:19.003Z,2.80
2022-12-27T01:11:06.583Z,2.80
2022-12-27T01:13:56.223Z,2.70
2022-12-27T01:16:43.903Z,2.70
2022-12-27T01:19:32.821Z,2.70
2022-12-27T01:22:19.887Z,2.70
2022-12-27T01:25:10.316Z,2.60
2022-12-27T01:27:57.742Z,2.60
2022-12-27T01:30:44.755Z,2.60
2022-12-27T01:33:31.547Z,2.60
2022-12-27T01:36:21.946Z,2.50
2022-12-27T01:39:11.801Z,2.50
2022-12-27T01:42:16.348Z,2.50
2022-12-27T01:45:04.123Z,2.50
2022-12-27T01:47:57.256Z,2.50
2022-12-27T01:50:46.359Z,2.50
2022-12-27T01:53:38.980Z,2.50
2022-12-27T01:56:31.669Z,2.50
2022-12-27T01:59:19.011Z,2.50
2022-12-27T02:02:06.523Z,2.50
2022-12-27T02:04:55.002Z,2.50
2022-12-27T02:07:52.130Z,2.50
2022-12-27T02:10:40.904Z,2.50
2022-12-27T02:13:28.609Z,2.50
2022-12-27T02:16:17.687Z,2.60
2022-12-27T02:19:06.179Z,2.50
2022-12-27T02:22:28.407Z,2.50
2022-12-27T02:25:26.083Z,2.50
2022-12-27T02:28:27.301Z,2.60
2022-12-27T02:31:22.299Z,2.60
2022-12-27T02:34:15.282Z,2.60
2022-12-27T02:37:08.517Z,2.60
2022-12-27T02:39:56.634Z,2.60
2022-12-27T02:43:01.692Z,2.60
2022-12-27T02:46:17.149Z,2.60
2022-12-27T02:49:44.688Z,2.50
2022-12-27T02:53:02.255Z,2.60
2022-12-27T02:56:24.380Z,2.60
2022-12-27T02:59:27.980Z,2.60
2022-12-27T03:02:43.228Z,2.60
2022-12-27T03:05:44.415Z,2.60
2022-12-27T03:08:39.027Z,2.60
2022-12-27T03:11:47.589Z,2.60
2022-12-27T03:14:57.881Z,2.60
2022-12-27T03:17:51.034Z,2.60
2022-12-27T03:20:59.244Z,2.60
2022-12-27T03:24:06.499Z,2.60
2022-12-27T03:26:54.787Z,2.60
2022-12-27T03:29:59.774Z,2.50
2022-12-27T03:33:07.929Z,2.50
2022-12-27T03:36:29.511Z,2.50
2022-12-27T03:39:24.077Z,2.50
2022-12-27T03:42:41.153Z,2.50
2022-12-27T03:45:49.109Z,2.40
2022-12-27T03:48:46.279Z,2.30
2022-12-27T03:51:39.454Z,2.40
2022-12-27T03:54:30.125Z,2.40
2022-12-27T03:57:19.199Z,2.40
2022-12-27T04:00:10.533Z,2.40
2022-12-27T04:02:57.726Z,2.30
2022-12-27T04:05:44.951Z,2.30
2022-12-27T04:08:50.926Z,2.20
2022-12-27T04:11:55.402Z,2.20
2022-12-27T04:14:59.754Z,2.20
2022-12-27T04:18:05.162Z,2.10
2022-12-27T04:21:09.693Z,2.10
2022-12-27T04:24:15.105Z,2.10
2022-12-27T04:27:19.489Z,2.10
2022-12-27T04:30:25.217Z,2.10
2022-12-27T04:33:29.592Z,2.10
2022-12-27T04:36:16.403Z,2.10
2022-12-27T04:39:05.394Z,2.10
2022-12-27T04:42:09.831Z,2.00
2022-12-27T04:45:15.544Z,2.00
2022-12-27T04:48:19.773Z,2.00
2022-12-27T04:51:24.121Z,2.00
2022-12-27T04:54:36.799Z,2.00
2022-12-27T04:57:24.004Z,1.90
2022-12-27T05:00:29.197Z,2.00
2022-12-27T05:03:19.768Z,1.90
2022-12-27T05:06:07.747Z,1.80
2022-12-27T05:09:12.283Z,1.70
2022-12-27T05:12:14.512Z,1.70
2022-12-27T05:15:01.955Z,1.70
2022-12-27T05:17:49.426Z,1.70
2022-12-27T05:20:36.673Z,1.60
2022-12-27T05:23:41.525Z,1.60
2022-12-27T05:26:29.686Z,1.50
2022-12-27T05:29:18.850Z,1.50
2022-12-27T05:32:12.583Z,1.50
2022-12-27T05:35:00.241Z,1.50
2022-12-27T05:37:53.097Z,1.40
2022-12-27T05:40:41.884Z,1.30
2022-12-27T05:43:29.564Z,1.30
2022-12-27T05:46:21.030Z,1.20
2022-12-27T05:49:08.343Z,1.10
2022-12-27T05:51:55.427Z,1.10
2022-12-27T05:54:42.623Z,1.10
2022-12-27T05:57:30.229Z,1.10
2022-12-27T06:00:17.703Z,1.10
2022-12-27T06:03:06.558Z,1.10
2022-12-27T06:05:53.962Z,1.10
2022-12-27T06:08:41.948Z,1.10
2022-12-27T06:11:29.152Z,1.10
2022-12-27T06:14:17.322Z,1.10
2022-12-27T06:17:04.533Z,1.10
2022-12-27T06:19:57.019Z,1.10
2022-12-27T06:22:45.073Z,1.10
2022-12-27T06:25:31.910Z,1.20
2022-12-27T06:28:22.476Z,1.20
2022-12-27T06:31:10.747Z,1.20
2022-12-27T06:33:58.667Z,1.20
2022-12-27T06:36:50.938Z,1.30
2022-12-27T06:39:38.054Z,1.30
2022-12-27T06:42:25.097Z,1.30
2022-12-27T06:45:12.594Z,1.30
2022-12-27T06:47:59.635Z,1.30
2022-12-27T06:50:47.338Z,1.20
2022-12-27T06:53:36.545Z,1.20
2022-12-27T06:56:25.044Z,1.10
2022-12-27T06:59:12.362Z,1.10
2022-12-27T07:01:59.457Z,1.00
2022-12-27T07:04:46.710Z,1.00
2022-12-27T07:07:33.762Z,1.00
2022-12-27T07:10:22.899Z,1.00
2022-12-27T07:13:10.061Z,1.00
2022-12-27T07:15:56.957Z,1.00
2022-12-27T07:18:44.744Z,1.00
2022-12-27T07:21:31.911Z,1.10
2022-12-27T07:24:18.820Z,1.10
2022-12-27T07:27:07.794Z,1.10
2022-12-27T07:29:55.782Z,1.10
2022-12-27T07:32:42.932Z,1.10
2022-12-27T07:35:29.892Z,1.20
2022-12-27T07:38:17.349Z,1.20
2022-12-27T07:41:05.219Z,1.20
2022-12-27T07:43:54.455Z,1.30
2022-12-27T07:46:41.785Z,1.30
2022-12-27T07:49:29.527Z,1.40
2022-12-27T07:52:16.531Z,1.50
2022-12-27T07:55:03.460Z,1.50
2022-12-27T07:57:52.093Z,1.50
2022-12-27T08:00:42.793Z,1.60
2022-12-27T08:03:29.976Z,1.60
2022-12-27T08:06:23.519Z,1.70
2022-12-27T08:09:16.278Z,1.70
2022-12-27T08:12:03.433Z,1.80
2022-12-27T08:14:50.402Z,1.80
2022-12-27T08:17:38.591Z,1.80
2022-12-27T08:20:25.582Z,1.90
2022-12-27T08:23:12.967Z,1.80
2022-12-27T08:26:00.309Z,1.90
2022-12-27T08:28:47.155Z,1.90
2022-12-27T08:31:34.189Z,1.90
2022-12-27T08:34:22.892Z,1.90
2022-12-27T08:37:10.321Z,1.90
2022-12-27T08:40:02.494Z,1.80
2022-12-27T08:42:49.990Z,1.80
2022-12-27T08:45:37.588Z,1.80
2022-12-27T08:48:25.478Z,1.90
2022-12-27T08:51:18.721Z,2.00
2022-12-27T08:54:13.738Z,2.00
2022-12-27T08:57:00.590Z,2.10
2022-12-27T08:59:50.125Z,2.00
2022-12-27T09:02:38.923Z,2.10
2022-12-27T09:05:27.695Z,2.30
2022-12-27T09:08:16.391Z,2.50
2022-12-27T09:11:10.263Z,2.70
2022-12-27T09:13:57.278Z,2.70
2022-12-27T09:16:44.587Z,2.70
2022-12-27T09:19:31.309Z,2.90
2022-12-27T09:22:18.969Z,3.10
2022-12-27T09:25:09.487Z,3.20
2022-12-27T09:27:56.777Z,3.40
2022-12-27T09:30:46.085Z,3.50
2022-12-27T09:33:34.117Z,3.80
2022-12-27T09:36:23.125Z,4.00
2022-12-27T09:39:13.923Z,4.00
2022-12-27T09:45:23.203Z,4.30
2022-12-27T09:48:16.143Z,4.50
2022-12-27T09:51:06.650Z,4.60
2022-12-27T09:54:00.664Z,4.40
2022-12-27T09:57:18.266Z,4.30
2022-12-27T09:59:59.855Z,4.10
2022-12-27T10:02:48.140Z,4.10
2022-12-27T10:05:38.241Z,4.20
2022-12-27T10:08:40.437Z,4.50
2022-12-27T10:11:42.252Z,4.60
2022-12-27T10:14:43.274Z,4.70
2022-12-27T10:17:52.706Z,5.00
2022-12-27T10:20:56.082Z,4.90
2022-12-27T10:23:46.946Z,4.90
2022-12-27T10:26:34.679Z,5.20
2022-12-27T10:29:24.537Z,5.20
2022-12-27T10:32:14.273Z,5.10
2022-12-27T10:35:04.196Z,5.50
2022-12-27T10:37:53.675Z,5.10
2022-12-27T10:40:48.682Z,4.90
2022-12-27T10:43:40.837Z,4.70
2022-12-27T10:46:33.052Z,5.20
2022-12-27T10:49:27.010Z,5.50
2022-12-27T10:52:21.332Z,5.40
2022-12-27T10:55:33.952Z,5.40
2022-12-27T10:58:22.801Z,5.40
2022-12-27T11:01:18.256Z,5.20
2022-12-27T11:04:20.036Z,5.20
2022-12-27T11:07:18.664Z,5.30
2022-12-27T11:10:19.231Z,5.40
2022-12-27T11:13:08.092Z,5.40
2022-12-27T11:15:58.997Z,5.40
2022-12-27T11:18:50.186Z,5.20
2022-12-27T11:21:40.573Z,5.20
2022-12-27T11:24:28.405Z,5.00
2022-12-27T11:27:25.362Z,5.30
2022-12-27T11:30:24.155Z,5.50
2022-12-27T11:33:24.562Z,5.80
2022-12-27T11:36:14.037Z,6.40
2022-12-27T11:39:01.958Z,6.70
2022-12-27T11:41:53.371Z,6.60
2022-12-27T11:44:46.578Z,6.70
2022-12-27T11:47:42.654Z,6.60
2022-12-27T11:50:52.710Z,6.60
2022-12-27T11:54:19.131Z,6.60
2022-12-27T11:57:19.499Z,6.60
2022-12-27T12:00:17.732Z,7.00
2022-12-27T12:03:34.149Z,7.10
2022-12-27T12:06:34.485Z,7.00
2022-12-27T12:09:48.897Z,6.90
2022-12-27T12:13:02.746Z,6.80
2022-12-27T12:16:25.280Z,6.90
2022-12-27T12:19:44.966Z,7.30
2022-12-27T12:22:55.738Z,7.70
2022-12-27T12:26:13.417Z,7.90
2022-12-27T12:29:18.716Z,7.80
2022-12-27T12:32:26.516Z,7.80
2022-12-27T12:35:26.529Z,7.80
2022-12-27T12:38:22.254Z,7.90
2022-12-27T12:41:36.818Z,7.70
2022-12-27T12:44:52.216Z,7.00
2022-12-27T12:48:10.257Z,6.50
2022-12-27T12:51:35.554Z,6.10
2022-12-27T12:54:42.768Z,6.50
2022-12-27T12:57:43.122Z,6.60
2022-12-27T13:00:50.232Z,6.90
2022-12-27T13:03:58.435Z,6.90
2022-12-27T13:07:13.200Z,6.60
2022-12-27T13:10:35.743Z,6.60
2022-12-27T13:13:30.195Z,6.50
2022-12-27T13:16:25.493Z,6.40
2022-12-27T13:19:36.482Z,6.30
2022-12-27T13:22:32.915Z,6.20
2022-12-27T13:25:29.482Z,6.10
2022-12-27T13:28:32.262Z,6.00
2022-12-27T13:31:34.542Z,5.90
2022-12-27T13:34:38.338Z,5.90
2022-12-27T13:37:41.564Z,5.80
2022-12-27T13:41:06.152Z,5.80
2022-12-27T13:44:20.424Z,5.70
2022-12-27T13:47:29.347Z,5.70
2022-12-27T13:50:37.744Z,5.60
2022-12-27T13:53:57.798Z,5.60
2022-12-27T13:56:56.643Z,5.60
2022-12-27T14:00:01.751Z,5.60
2022-12-27T14:03:20.438Z,5.60
2022-12-27T14:06:55.038Z,5.50
2022-12-27T14:10:11.697Z,5.40
2022-12-27T14:13:01.164Z,5.40
2022-12-27T14:16:17.647Z,5.40
2022-12-27T14:19:19.961Z,5.30
2022-12-27T14:22:29.890Z,5.20
2022-12-27T14:25:51.997Z,5.10
2022-12-27T14:29:11.581Z,5.10
2022-12-27T14:32:40.478Z,5.10
2022-12-27T14:36:04.194Z,5.00
2022-12-27T14:39:39.070Z,4.90
2022-12-27T14:43:27.426Z,4.80
2022-12-27T14:46:44.570Z,4.80
2022-12-27T14:50:21.332Z,4.70
2022-12-27T14:53:38.642Z,4.70
2022-12-27T14:56:33.940Z,4.50
2022-12-27T14:59:33.833Z,4.50
2022-12-27T15:02:35.801Z,4.40
2022-12-27T15:05:38.426Z,4.20
2022-12-27T15:08:54.189Z,4.20
2022-12-27T15:11:55.617Z,4.20
2022-12-27T15:14:55.520Z,4.10
2022-12-27T15:18:05.000Z,4.10
2022-12-27T15:21:27.388Z,4.00
2022-12-27T15:24:30.205Z,4.00
2022-12-27T15:27:26.466Z,3.90
2022-12-27T15:30:24.620Z,3.90
2022-12-27T15:33:24.071Z,3.80
2022-12-27T15:36:15.775Z,3.80
2022-12-27T15:39:03.830Z,3.80
2022-12-27T15:41:58.402Z,3.70
2022-12-27T15:44:57.602Z,3.70
2022-12-27T15:48:21.847Z,3.70
2022-12-27T15:51:15.324Z,3.70
2022-12-27T15:54:24.831Z,3.50
2022-12-27T15:57:30.344Z,3.40
2022-12-27T16:00:32.485Z,3.30
2022-12-27T16:03:35.476Z,3.10
2022-12-27T16:07:00.612Z,3.00
2022-12-27T16:09:51.554Z,2.90
2022-12-27T16:12:41.394Z,2.80
2022-12-27T16:15:51.143Z,2.60
2022-12-27T16:19:25.435Z,2.60
2022-12-27T16:22:26.795Z,2.50
2022-12-27T16:25:34.994Z,2.40
2022-12-27T16:28:27.476Z,2.30
2022-12-27T16:31:14.607Z,2.30
2022-12-27T16:34:13.833Z,2.30
2022-12-27T16:37:02.251Z,2.20
2022-12-27T16:40:13.395Z,2.10
2022-12-27T16:43:51.664Z,2.00
2022-12-27T16:47:07.567Z,1.90
2022-12-27T16:50:11.696Z,1.80
2022-12-27T16:53:10.914Z,1.70
2022-12-27T16:56:22.265Z,1.60
2022-12-27T16:59:42.614Z,1.50
2022-12-27T17:02:42.219Z,1.40
2022-12-27T17:05:41.908Z,1.30
2022-12-27T17:08:36.104Z,1.20
2022-12-27T17:11:27.367Z,1.10
2022-12-27T17:14:19.555Z,1.00
2022-12-27T17:17:17.311Z,1.00
2022-12-27T17:20:07.282Z,0.90
2022-12-27T17:22:59.648Z,0.80
2022-12-27T17:25:52.490Z,0.80
2022-12-27T17:28:48.766Z,0.80
2022-12-27T17:31:47.231Z,0.70
2022-12-27T17:34:42.995Z,0.60
2022-12-27T17:37:40.822Z,0.50
2022-12-27T17:40:37.272Z,0.40
2022-12-27T17:43:54.210Z,0.40
2022-12-27T17:46:48.491Z,0.40
2022-12-27T17:49:35.605Z,0.30
2022-12-27T17:52:44.559Z,0.30
2022-12-27T17:55:50.621Z,0.20
2022-12-27T17:58:38.251Z,0.20
2022-12-27T18:01:29.099Z,0.20
2022-12-27T18:04:25.576Z,0.20
2022-12-27T18:07:16.526Z,0.10
2022-12-27T18:10:08.571Z,0.10
2022-12-27T18:12:59.344Z,0.10
2022-12-27T18:15:49.432Z,0.00
2022-12-27T18:18:36.666Z,-0.10
2022-12-27T18:21:25.804Z,-0.10
2022-12-27T18:24:27.559Z,-0.10
2022-12-27T18:27:28.172Z,-0.20
2022-12-27T18:30:17.193Z,-0.20
2022-12-27T18:33:06.944Z,-0.20
2022-12-27T18:35:54.273Z,-0.20
2022-12-27T18:38:44.921Z,-0.30
2022-12-27T18:41:38.545Z,-0.30
2022-12-27T18:44:28.404Z,-0.20
2022-12-27T18:47:21.608Z,-0.20
2022-12-27T18:50:18.788Z,-0.20
2022-12-27T18:53:08.249Z,-0.20
2022-12-27T18:56:00.818Z,-0.20
2022-12-27T18:59:00.968Z,-0.20
2022-12-27T19:01:50.015Z,-0.20
2022-12-27T19:04:38.750Z,-0.20
2022-12-27T19:07:26.381Z,-0.20
2022-12-27T19:10:18.174Z,-0.20
2022-12-27T19:13:05.972Z,-0.20
2022-12-27T19:15:54.673Z,-0.10
2022-12-27T19:18:41.913Z,0.00
2022-12-27T19:21:36.641Z,0.00
2022-12-27T19:24:33.618Z,0.00
2022-12-27T19:27:25.236Z,0.00
2022-12-27T19:30:34.174Z,0.00
2022-12-27T19:33:27.056Z,0.00
2022-12-27T19:36:15.024Z,-0.10
2022-12-27T19:39:04.600Z,-0.20
2022-12-27T19:41:52.899Z,-0.20
2022-12-27T19:44:39.935Z,-0.10
2022-12-27T19:47:27.839Z,-0.10
2022-12-27T19:50:15.498Z,-0.20
2022-12-27T19:53:03.234Z,-0.20
2022-12-27T19:55:52.399Z,-0.40
2022-12-27T19:58:39.295Z,-0.50
2022-12-27T20:01:26.790Z,-0.50
2022-12-27T20:04:14.245Z,-0.50
2022-12-27T20:07:02.568Z,-0.70
2022-12-27T20:09:50.144Z,-0.60
2022-12-27T20:12:39.867Z,-0.60
2022-12-27T20:15:27.348Z,-0.60
2022-12-27T20:18:14.398Z,-0.60
2022-12-27T20:21:01.252Z,-0.60
2022-12-27T20:23:51.073Z,-0.60
2022-12-27T20:26:38.266Z,-0.60
2022-12-27T20:29:27.619Z,-0.70
2022-12-27T20:32:14.954Z,-0.70
2022-12-27T20:35:02.388Z,-0.80
2022-12-27T20:37:49.690Z,-0.80
2022-12-27T20:40:36.945Z,-0.80
2022-12-27T20:43:23.939Z,-0.80
2022-12-27T20:46:14.405Z,-0.80
2022-12-27T20:49:02.423Z,-0.80
2022-12-27T20:51:49.387Z,-0.80
2022-12-27T20:54:36.623Z,-0.80
2022-12-27T20:57:25.368Z,-0.80
2022-12-27T21:00:14.784Z,-0.90
2022-12-27T21:03:03.519Z,-0.90
2022-12-27T21:05:51.218Z,-0.80
2022-12-27T21:08:46.551Z,-0.80
2022-12-27T21:11:33.823Z,-0.80
2022-12-27T21:14:20.827Z,-0.80
2022-12-27T21:17:07.855Z,-0.80
2022-12-27T21:19:56.526Z,-0.80
2022-12-27T21:22:43.651Z,-0.80
2022-12-27T21:25:33.999Z,-0.80
2022-12-27T21:28:21.263Z,-0.80
2022-12-27T21:31:10.085Z,-0.80
2022-12-27T21:33:57.632Z,-0.90
2022-12-27T21:36:46.435Z,-0.90
2022-12-27T21:39:34.353Z,-0.90
2022-12-27T21:42:22.016Z,-0.90
2022-12-27T21:45:09.346Z,-1.00
2022-12-27T21:47:56.237Z,-1.10
2022-12-27T21:50:43.242Z,-1.00
2022-12-27T21:53:31.426Z,-1.10
2022-12-27T21:56:18.965Z,-1.10
2022-12-27T21:59:11.109Z,-1.10
2022-12-27T22:02:01.526Z,-1.20
2022-12-27T22:04:49.602Z,-1.30
2022-12-27T22:07:36.769Z,-1.30
2022-12-27T22:10:27.188Z,-1.30
2022-12-27T22:13:14.303Z,-1.30
2022-12-27T22:16:02.602Z,-1.30
2022-12-27T22:18:50.634Z,-1.40
2022-12-27T22:21:38.747Z,-1.40
2022-12-27T22:24:25.633Z,-1.40
2022-12-27T22:27:14.399Z,-1.30
2022-12-27T22:30:01.251Z,-1.30
2022-12-27T22:32:48.370Z,-1.30
2022-12-27T22:35:35.918Z,-1.30
2022-12-27T22:38:22.845Z,-1.30
2022-12-27T22:41:13.613Z,-1.30
2022-12-27T22:44:02.980Z,-1.30
2022-12-27T22:47:24.423Z,-1.30
2022-12-27T22:49:57.576Z,-1.30
2022-12-27T22:52:45.656Z,-1.30
2022-12-27T22:55:35.157Z,-1.30
2022-12-27T22:58:22.103Z,-1.40
2022-12-27T23:01:14.061Z,-1.40
2022-12-27T23:04:03.953Z,-1.40
2022-12-27T23:06:51.955Z,-1.40
2022-12-27T23:09:43.512Z,-1.40
2022-12-27T23:12:31.095Z,-1.40
2022-12-27T23:15:18.259Z,-1.40
2022-12-27T23:18:07.336Z,-1.40
2022-12-27T23:21:21.653Z,-1.40
2022-12-27T23:24:01.616Z,-1.50
2022-12-27T23:26:49.327Z,-1.50
2022-12-27T23:29:36.281Z,-1.50
2022-12-27T23:32:23.499Z,-1.50
2022-12-27T23:35:12.167Z,-1.50
2022-12-27T23:37:59.338Z,-1.50
2022-12-27T23:40:46.193Z,-1.50
2022-12-27T23:43:51.803Z,-1.50
2022-12-27T23:46:40.096Z,-1.60
2022-12-27T23:49:27.764Z,-1.60
2022-12-27T23:52:16.600Z,-1.60
2022-12-27T23:55:03.690Z,-1.60
2022-12-27T23:57:51.112Z,-1.60
